Time;durP1;ratioP1;P1;durP2;ratioP2;P2;SDS_P1;SDS_P2;PMS_P1;PMS_P2;Temp;Humidity;BMP_temperature;BMP_pressure;BME280_temperature;BME280_humidity;BME280_pressure;Samples;Min_cycle;Max_cycle;Signal;HPM_P1;HPM_P2
2022/10/31 00:01:40;;;;;;;8.40;4.30;;;10.30;99.90;;;11.23;100.00;98634.34;5032660;28;20964;-87
2022/10/31 00:04:09;;;;;;;13.07;4.80;;;10.30;99.90;;;11.25;100.00;98640.19;5034042;28;20475;-86
2022/10/31 00:06:39;;;;;;;10.20;6.07;;;10.30;99.90;;;11.24;100.00;98632.53;5032652;28;21007;-86
2022/10/31 00:09:10;;;;;;;14.97;4.47;;;10.20;99.90;;;11.20;100.00;98641.72;5034720;28;20470;-86
2022/10/31 00:11:38;;;;;;;15.73;4.47;;;10.20;99.90;;;11.20;100.00;98644.34;5034697;28;20922;-86
2022/10/31 00:14:07;;;;;;;10.67;5.53;;;10.30;99.90;;;11.11;100.00;98635.72;5036094;28;20547;-86
2022/10/31 00:16:36;;;;;;;15.90;6.37;;;10.10;99.90;;;11.17;100.00;98644.72;5036567;28;20556;-86
2022/10/31 00:19:08;;;;;;;12.70;4.80;;;10.20;99.90;;;11.13;100.00;98654.72;5034275;28;20493;-86
2022/10/31 00:21:36;;;;;;;9.00;4.50;;;10.20;99.90;;;11.16;100.00;98649.13;5033127;28;20524;-86
2022/10/31 00:24:08;;;;;;;11.80;4.80;;;10.30;99.90;;;11.14;100.00;98645.06;5033831;28;20563;-87
2022/10/31 00:26:38;;;;;;;11.20;5.10;;;10.40;99.90;;;11.14;100.00;98651.13;5031763;28;20529;-86
2022/10/31 00:29:07;;;;;;;9.50;4.40;;;10.40;99.90;;;11.13;100.00;98644.25;5035902;28;20493;-86
2022/10/31 00:31:36;;;;;;;15.77;4.87;;;10.30;99.90;;;11.17;100.00;98650.75;5039541;28;20494;-86
2022/10/31 00:34:05;;;;;;;8.67;4.90;;;10.40;99.90;;;11.15;100.00;98639.63;5034196;28;20465;-86
2022/10/31 00:36:33;;;;;;;9.97;4.67;;;10.40;99.90;;;11.15;100.00;98631.78;5034062;28;20846;-86
2022/10/31 00:39:03;;;;;;;13.70;4.67;;;10.40;99.90;;;11.15;100.00;98637.00;5037940;28;20466;-86
2022/10/31 00:41:33;;;;;;;11.67;4.63;;;10.40;99.90;;;11.13;100.00;98636.38;5036844;28;21062;-86
2022/10/31 00:44:01;;;;;;;10.37;5.13;;;10.30;99.90;;;11.14;100.00;98643.25;5034840;28;20504;-86
2022/10/31 00:46:30;;;;;;;12.60;5.20;;;10.30;99.90;;;11.11;100.00;98636.56;5036499;28;21013;-86
2022/10/31 00:48:59;;;;;;;16.43;5.43;;;10.30;99.90;;;11.09;100.00;98638.53;5033949;28;20462;-85
2022/10/31 00:51:27;;;;;;;21.23;4.50;;;10.30;99.90;;;11.09;100.00;98640.34;5033111;28;20564;-87
2022/10/31 00:53:57;;;;;;;11.10;4.60;;;10.30;99.90;;;11.07;100.00;98639.72;5032116;28;20473;-86
2022/10/31 00:56:25;;;;;;;12.13;4.50;;;10.20;99.90;;;11.08;100.00;98630.84;5024754;28;20476;-86
2022/10/31 00:58:57;;;;;;;13.40;3.93;;;10.20;99.90;;;11.11;100.00;98627.88;5033426;28;20476;-86
2022/10/31 01:01:25;;;;;;;8.87;4.87;;;10.20;99.90;;;11.11;100.00;98633.94;5033956;28;20919;-87
2022/10/31 01:03:55;;;;;;;8.73;4.73;;;10.20;99.90;;;11.02;100.00;98626.31;5034641;28;20458;-86
2022/10/31 01:06:24;;;;;;;9.30;4.17;;;10.10;99.90;;;11.04;100.00;98624.34;5034256;28;20548;-86
2022/10/31 01:08:53;;;;;;;7.30;3.80;;;10.20;99.90;;;11.02;100.00;98616.69;5033630;28;20539;-86
2022/10/31 01:11:23;;;;;;;6.30;4.20;;;10.10;99.90;;;11.00;100.00;98613.41;5033604;28;20502;-86
2022/10/31 01:13:55;;;;;;;11.10;4.27;;;10.10;99.90;;;10.99;100.00;98610.97;5034734;28;20512;-86
2022/10/31 01:16:26;;;;;;;15.80;5.83;;;10.10;99.90;;;10.97;100.00;98621.63;5031833;28;20590;-86
2022/10/31 01:18:55;;;;;;;14.03;4.30;;;10.00;99.90;;;10.95;100.00;98622.78;5034531;28;20549;-86
2022/10/31 01:21:27;;;;;;;8.43;4.60;;;10.00;99.90;;;10.95;100.00;98614.94;5034983;28;20542;-86
2022/10/31 01:23:56;;;;;;;14.30;6.57;;;10.00;99.90;;;11.00;100.00;98615.25;5033265;28;20540;-86
2022/10/31 01:26:27;;;;;;;13.20;4.70;;;10.10;99.90;;;11.02;100.00;98626.31;5031641;28;21051;-87
2022/10/31 01:29:01;;;;;;;12.60;4.23;;;10.10;99.90;;;11.01;100.00;98619.47;5033223;28;20471;-86
2022/10/31 01:31:33;;;;;;;6.30;4.50;;;10.10;99.90;;;10.97;100.00;98623.41;5034305;28;20454;-86
2022/10/31 01:34:03;;;;;;;14.63;4.40;;;10.10;99.90;;;10.98;100.00;98625.03;5033305;28;20543;-85
2022/10/31 01:36:34;;;;;;;9.63;4.63;;;10.10;99.90;;;11.01;100.00;98629.94;5030782;28;21047;-86
2022/10/31 01:39:06;;;;;;;12.43;4.30;;;10.10;99.90;;;11.01;100.00;98624.69;5032747;28;20569;-86
2022/10/31 01:41:41;;;;;;;13.70;4.83;;;10.10;99.90;;;10.98;100.00;98625.88;5031004;28;20912;-86
2022/10/31 01:44:59;;;;;;;9.87;4.10;;;10.10;99.90;;;10.99;100.00;98622.28;5033155;28;20474;-85
2022/10/31 01:47:47;;;;;;;6.27;4.07;;;10.10;99.90;;;11.01;100.00;98619.47;5032824;28;20576;-86
2022/10/31 01:50:29;;;;;;;14.27;4.20;;;10.10;99.90;;;10.97;100.00;98611.16;5032204;28;20464;-86
2022/10/31 01:53:01;;;;;;;8.50;3.83;;;10.00;99.90;;;10.97;100.00;98610.31;5040757;28;21076;-86
2022/10/31 01:55:35;;;;;;;17.60;5.37;;;10.00;99.90;;;10.99;100.00;98611.81;5034142;28;20538;-86
2022/10/31 01:58:10;;;;;;;7.43;4.53;;;10.10;99.90;;;10.94;100.00;98615.91;5035147;28;20501;-86
2022/10/31 02:00:44;;;;;;;8.03;4.10;;;10.00;99.90;;;10.86;100.00;98605.53;5032979;28;20568;-86
2022/10/31 02:03:13;;;;;;;11.73;5.37;;;9.90;99.90;;;10.85;100.00;98602.09;5036500;28;20512;-86
2022/10/31 02:05:44;;;;;;;17.97;5.23;;;10.00;99.90;;;10.85;100.00;98604.72;5036147;28;20997;-86
2022/10/31 02:08:19;;;;;;;17.00;4.80;;;10.00;99.90;;;10.89;100.00;98599.94;5035531;28;20565;-86
2022/10/31 02:10:48;;;;;;;7.67;4.23;;;10.00;99.90;;;10.91;100.00;98597.94;5033979;28;20471;-86
2022/10/31 02:13:19;;;;;;;12.80;4.50;;;10.00;99.90;;;10.92;100.00;98600.41;5034456;28;20588;-86
2022/10/31 02:15:54;;;;;;;6.47;3.97;;;10.10;99.90;;;10.95;100.00;98607.09;5029887;28;20881;-86
2022/10/31 02:18:26;;;;;;;8.77;4.00;;;10.20;99.90;;;10.96;100.00;98603.47;5031413;28;20558;-86
2022/10/31 02:21:12;;;;;;;17.73;3.90;;;10.10;99.90;;;10.95;100.00;98605.28;5033174;28;21015;-86
2022/10/31 02:24:36;;;;;;;12.53;3.67;;;10.10;99.90;;;10.95;100.00;98607.91;5038581;28;20457;-86
2022/10/31 02:27:49;;;;;;;5.93;3.60;;;10.10;99.90;;;10.84;100.00;98602.25;5010244;28;20458;-86
2022/10/31 02:30:23;;;;;;;7.03;3.93;;;9.90;99.90;;;10.84;100.00;98602.25;5028315;28;20539;-86
2022/10/31 02:33:19;;;;;;;9.40;4.10;;;9.90;99.90;;;10.82;100.00;98599.00;5034811;28;20501;-86
2022/10/31 02:36:04;;;;;;;5.70;3.77;;;10.00;99.90;;;10.82;100.00;98601.63;5022459;28;20553;-86
2022/10/31 02:38:52;;;;;;;12.63;4.43;;;10.00;99.90;;;10.84;100.00;98597.03;5035900;28;20484;-86
2022/10/31 02:41:33;;;;;;;18.10;3.60;;;10.10;99.90;;;10.82;100.00;98596.41;5033541;28;20472;-86
2022/10/31 02:44:13;;;;;;;7.30;3.77;;;10.10;99.90;;;10.84;100.00;98599.63;5036635;28;20495;-87
2022/10/31 02:46:50;;;;;;;10.03;4.10;;;10.00;99.90;;;10.79;100.00;98605.41;5038141;28;20507;-86
2022/10/31 02:49:29;;;;;;;6.47;4.27;;;10.00;99.90;;;10.78;100.00;98603.78;5038190;28;20525;-86
2022/10/31 02:51:59;;;;;;;11.13;5.10;;;9.90;99.90;;;10.77;100.00;98598.72;5037247;28;20481;-86
2022/10/31 02:54:29;;;;;;;16.03;4.20;;;10.00;99.90;;;10.79;100.00;98594.13;5039600;28;20493;-86
2022/10/31 02:57:07;;;;;;;9.17;3.43;;;9.90;99.90;;;10.77;100.00;98596.09;5038515;28;20936;-85
2022/10/31 02:59:45;;;;;;;11.70;3.70;;;9.90;99.90;;;10.73;100.00;98594.81;5037121;28;20497;-86
2022/10/31 03:02:46;;;;;;;9.87;3.93;;;9.90;99.90;;;10.74;100.00;98601.69;5037785;28;20457;-86
2022/10/31 03:05:56;;;;;;;8.17;4.10;;;9.90;99.90;;;10.69;100.00;98599.56;5037966;28;20581;-87
2022/10/31 03:08:32;;;;;;;11.50;4.03;;;9.80;99.90;;;10.69;100.00;98601.41;5037696;28;21017;-87
2022/10/31 03:11:06;;;;;;;9.70;4.03;;;9.80;99.90;;;10.72;100.00;98598.44;5037188;28;20506;-87
2022/10/31 03:13:47;;;;;;;9.40;3.33;;;9.80;99.90;;;10.74;100.00;98589.41;5036254;28;20601;-86
2022/10/31 03:16:22;;;;;;;10.40;4.00;;;9.80;99.90;;;10.73;100.00;98592.19;5040791;28;20493;-86
2022/10/31 03:18:58;;;;;;;6.97;3.70;;;9.80;99.90;;;10.70;100.00;98595.97;5032919;28;20499;-87
2022/10/31 03:21:34;;;;;;;10.90;4.13;;;9.80;99.90;;;10.70;100.00;98590.75;5035454;28;20493;-86
2022/10/31 03:24:06;;;;;;;7.67;3.83;;;9.80;99.90;;;10.73;100.00;98587.78;5034158;28;20492;-86
2022/10/31 03:26:39;;;;;;;8.43;4.20;;;9.90;99.90;;;10.74;100.00;98585.97;5034620;28;20497;-86
2022/10/31 03:29:13;;;;;;;6.07;3.33;;;9.90;99.90;;;10.69;100.00;98585.72;5033073;28;20574;-86
2022/10/31 03:31:50;;;;;;;14.80;4.00;;;9.80;99.90;;;10.68;100.00;98591.91;5034162;28;20911;-85
2022/10/31 03:34:21;;;;;;;11.93;3.53;;;9.80;99.90;;;10.68;100.00;98587.50;5033664;28;20502;-86
2022/10/31 03:36:56;;;;;;;15.17;4.03;;;9.80;99.90;;;10.69;100.00;98588.31;5034663;28;20458;-86
2022/10/31 03:39:29;;;;;;;9.90;4.10;;;9.90;99.90;;;10.69;100.00;98583.88;5034158;28;20508;-86
2022/10/31 03:42:06;;;;;;;13.10;3.70;;;9.80;99.90;;;10.62;100.00;98585.56;5033951;28;20528;-86
2022/10/31 03:44:41;;;;;;;7.73;3.67;;;9.70;99.90;;;10.62;100.00;98582.16;5032451;28;20458;-86
2022/10/31 03:47:11;;;;;;;19.03;4.00;;;9.70;99.90;;;10.58;100.00;98586.91;5033562;28;20479;-86
2022/10/31 03:49:40;;;;;;;9.87;3.77;;;9.60;99.90;;;10.57;100.00;98586.09;5034600;28;20512;-86
2022/10/31 03:52:24;;;;;;;8.00;4.10;;;9.60;99.90;;;10.62;100.00;98576.94;5032375;28;20476;-86
2022/10/31 03:54:59;;;;;;;12.50;4.53;;;9.70;99.90;;;10.60;100.00;98577.91;5036071;28;20509;-86
2022/10/31 03:57:36;;;;;;;6.83;3.23;;;9.70;99.90;;;10.59;100.00;98573.66;5033284;28;20469;-86
2022/10/31 04:00:10;;;;;;;8.37;3.33;;;9.60;99.90;;;10.58;100.00;98581.69;5038361;28;20491;-86
2022/10/31 04:02:44;;;;;;;14.30;4.43;;;9.60;99.90;;;10.58;100.00;98581.69;5037459;28;20447;-87
2022/10/31 04:05:18;;;;;;;7.30;3.97;;;9.60;99.90;;;10.58;100.00;98582.50;5034983;28;20457;-82
2022/10/31 04:07:56;;;;;;;9.67;3.47;;;9.60;99.90;;;10.59;100.00;98583.28;5032858;28;20646;-86
2022/10/31 04:10:28;;;;;;;6.33;3.70;;;9.60;99.90;;;10.56;100.00;98584.47;5031693;28;20554;-86
2022/10/31 04:13:10;;;;;;;6.03;4.13;;;9.60;99.90;;;10.59;100.00;98589.34;5035813;28;20560;-86
2022/10/31 04:15:42;;;;;;;13.27;3.50;;;9.70;99.90;;;10.62;100.00;98587.38;5034030;28;20480;-87
2022/10/31 04:18:11;;;;;;;13.23;4.30;;;9.70;99.90;;;10.63;100.00;98584.59;5031939;28;20466;-81
2022/10/31 04:20:42;;;;;;;8.63;3.67;;;9.70;99.90;;;10.66;100.00;98589.47;5033377;28;20564;-85
2022/10/31 04:23:20;;;;;;;10.03;3.60;;;9.80;99.90;;;10.64;100.00;98585.41;5033959;28;20976;-85
2022/10/31 04:25:49;;;;;;;11.70;4.17;;;9.70;99.90;;;10.60;100.00;98585.75;5036396;28;20966;-85
2022/10/31 04:28:20;;;;;;;12.03;3.37;;;9.70;99.90;;;10.64;100.00;98588.00;5033557;28;20870;-86
2022/10/31 04:30:49;;;;;;;4.50;3.30;;;9.80;99.90;;;10.63;100.00;98594.22;5038544;28;20480;-86
2022/10/31 04:33:18;;;;;;;9.10;3.73;;;9.70;99.90;;;10.64;100.00;98585.41;5037321;28;20453;-86
2022/10/31 04:35:46;;;;;;;16.87;4.43;;;9.70;99.90;;;10.59;100.00;98591.97;5037654;28;21004;-86
2022/10/31 04:38:16;;;;;;;9.97;3.70;;;9.70;99.90;;;10.55;100.00;98582.81;5034893;28;20489;-86
2022/10/31 04:40:46;;;;;;;14.73;4.40;;;9.60;99.90;;;10.58;100.00;98585.13;5035092;28;20563;-86
2022/10/31 04:43:15;;;;;;;15.63;4.17;;;9.60;99.90;;;10.60;100.00;98585.75;5035960;28;20888;-87
2022/10/31 04:45:44;;;;;;;15.07;3.77;;;9.70;99.90;;;10.62;100.00;98588.19;5033120;28;20465;-86
2022/10/31 04:48:12;;;;;;;8.83;3.43;;;9.70;99.90;;;10.56;100.00;98581.84;5033850;28;20552;-86
2022/10/31 04:50:41;;;;;;;9.60;4.10;;;9.70;99.90;;;10.53;100.00;98587.44;5034690;28;21776;-86
2022/10/31 04:53:10;;;;;;;5.03;3.37;;;9.60;99.90;;;10.53;100.00;98582.19;5035761;28;20462;-85
2022/10/31 04:55:40;;;;;;;16.90;3.70;;;9.60;99.90;;;10.55;100.00;98582.81;5036137;28;20580;-85
2022/10/31 04:58:09;;;;;;;8.37;4.03;;;9.60;99.90;;;10.55;100.00;98577.59;5035238;28;20556;-86
2022/10/31 05:00:39;;;;;;;11.27;4.20;;;9.70;99.90;;;10.46;100.00;98573.41;5035132;28;20952;-86
2022/10/31 05:03:08;;;;;;;7.97;3.90;;;9.60;99.90;;;10.46;100.00;98583.88;5035371;28;20469;-86
2022/10/31 05:05:37;;;;;;;15.37;3.67;;;9.60;99.90;;;10.42;100.00;98579.16;5033410;28;20531;-86
2022/10/31 05:08:07;;;;;;;12.73;3.50;;;9.50;99.90;;;10.39;100.00;98577.72;5036034;28;21037;-86
2022/10/31 05:10:36;;;;;;;7.03;3.60;;;9.40;99.90;;;10.36;100.00;98562.38;5035346;28;20492;-85
2022/10/31 05:13:07;;;;;;;7.90;4.80;;;9.40;99.90;;;10.36;100.00;98556.31;5045215;28;22052;-87
2022/10/31 05:15:36;;;;;;;5.23;3.63;;;9.40;99.90;;;10.32;100.00;98555.03;5033368;28;20571;-86
2022/10/31 05:18:06;;;;;;;16.07;3.80;;;9.40;99.90;;;10.28;100.00;98556.38;5037272;28;20928;-86
2022/10/31 05:20:36;;;;;;;8.83;4.23;;;9.30;99.90;;;10.29;100.00;98556.22;5035957;28;20457;-86
2022/10/31 05:23:05;;;;;;;5.40;3.23;;;9.40;99.90;;;10.22;100.00;98555.28;5035648;28;20557;-86
2022/10/31 05:25:35;;;;;;;6.37;3.60;;;9.30;99.90;;;10.23;100.00;98556.09;5036254;28;20453;-78
2022/10/31 05:28:05;;;;;;;7.97;3.77;;;9.30;99.90;;;10.23;100.00;98550.88;5035488;28;20453;-85
2022/10/31 05:30:35;;;;;;;9.00;3.60;;;9.30;99.90;;;10.20;100.00;98552.03;5035897;28;20449;-87
2022/10/31 05:33:04;;;;;;;11.53;3.63;;;9.20;99.90;;;10.17;100.00;98552.34;5033704;28;20457;-87
2022/10/31 05:35:34;;;;;;;11.10;3.87;;;9.30;99.90;;;10.10;100.00;98557.41;5035900;28;20548;-81
2022/10/31 05:38:02;;;;;;;7.10;3.60;;;9.20;99.90;;;10.06;100.00;98565.78;5036699;28;21132;-86
2022/10/31 05:40:32;;;;;;;6.50;3.40;;;9.10;99.90;;;10.05;100.00;98558.91;5035271;28;20519;-86
2022/10/31 05:43:02;;;;;;;8.33;3.97;;;9.10;99.90;;;10.07;100.00;98556.94;5037343;28;20449;-86
2022/10/31 05:45:33;;;;;;;7.27;3.50;;;9.10;99.90;;;9.99;100.00;98559.63;5035043;28;20544;-87
2022/10/31 05:48:05;;;;;;;5.20;3.67;;;9.00;99.90;;;9.97;100.00;98554.53;5036048;28;20492;-87
2022/10/31 05:50:34;;;;;;;19.30;3.83;;;9.00;99.90;;;9.96;100.00;98555.53;5035741;28;20446;-87
2022/10/31 05:53:06;;;;;;;5.27;3.70;;;9.00;99.90;;;9.97;100.00;98551.13;5038868;28;20465;-87
2022/10/31 05:55:34;;;;;;;9.70;4.27;;;9.00;99.90;;;9.95;100.00;98548.69;5036819;28;21066;-88
2022/10/31 05:58:03;;;;;;;9.60;3.63;;;9.00;99.90;;;9.93;100.00;98552.44;5041042;28;20552;-87
2022/10/31 06:00:34;;;;;;;5.03;3.60;;;9.00;99.90;;;9.87;100.00;98553.13;5036828;28;20437;-87
2022/10/31 06:03:06;;;;;;;10.70;3.90;;;8.90;99.90;;;9.86;100.00;98548.88;5036336;28;20454;-87
2022/10/31 06:05:37;;;;;;;19.97;4.00;;;8.90;99.90;;;9.80;100.00;98545.16;5036899;28;20450;-87
2022/10/31 06:08:07;;;;;;;15.03;3.50;;;8.80;99.90;;;9.80;100.00;98536.50;5036664;28;20964;-87
2022/10/31 06:10:36;;;;;;;5.50;3.63;;;8.80;99.90;;;9.82;100.00;98534.56;5038498;28;20569;-87
2022/10/31 06:13:06;;;;;;;9.60;3.50;;;8.80;99.90;;;9.79;100.00;98540.13;5040247;28;20562;-88
2022/10/31 06:15:36;;;;;;;15.97;3.27;;;8.80;99.90;;;9.72;100.00;98536.56;5039805;28;20562;-87
2022/10/31 06:18:07;;;;;;;11.90;3.60;;;8.70;99.90;;;9.67;100.00;98537.06;5041445;28;20438;-87
2022/10/31 06:20:37;;;;;;;14.10;3.50;;;8.60;99.90;;;9.66;100.00;98534.59;5042462;28;20477;-87
2022/10/31 06:23:06;;;;;;;17.23;3.40;;;8.70;99.90;;;9.68;100.00;98524.81;5042181;28;20509;-87
2022/10/31 06:25:36;;;;;;;4.93;2.93;;;8.70;99.90;;;9.67;100.00;98538.84;5043288;28;20457;-87
2022/10/31 06:28:05;;;;;;;9.10;4.17;;;8.70;99.90;;;9.64;100.00;98539.19;5042115;28;20552;-87
2022/10/31 06:30:36;;;;;;;12.43;4.67;;;8.70;99.90;;;9.60;100.00;98539.53;5041813;28;20453;-86
2022/10/31 06:33:06;;;;;;;9.87;3.70;;;8.60;99.90;;;9.63;100.00;98542.78;5041663;28;20453;-87
2022/10/31 06:35:35;;;;;;;19.10;4.93;;;8.60;99.90;;;9.65;100.00;98543.44;5041047;28;20538;-87
2022/10/31 06:38:04;;;;;;;11.30;3.63;;;8.70;99.90;;;9.67;100.00;98544.88;5042205;28;20544;-87
2022/10/31 06:40:33;;;;;;;11.00;3.93;;;8.70;99.90;;;9.69;100.00;98539.47;5041749;28;20448;-87
2022/10/31 06:43:03;;;;;;;12.83;3.60;;;8.70;99.90;;;9.68;100.00;98540.47;5041373;28;20875;-88
2022/10/31 06:45:32;;;;;;;13.93;4.10;;;8.70;99.90;;;9.65;100.00;98546.03;5040859;28;21032;-87
2022/10/31 06:48:03;;;;;;;8.40;4.40;;;8.70;99.90;;;9.66;100.00;98545.03;5041251;28;20450;-87
2022/10/31 06:50:45;;;;;;;13.60;5.10;;;8.70;99.90;;;9.68;100.00;98550.94;5041720;28;20493;-87
2022/10/31 06:53:15;;;;;;;20.37;3.70;;;8.70;99.90;;;9.66;100.00;98552.88;5039425;28;20461;-87
2022/10/31 06:55:44;;;;;;;10.97;3.70;;;8.70;99.90;;;9.65;100.00;98556.50;5040880;28;20520;-87
2022/10/31 06:58:13;;;;;;;8.13;4.10;;;8.70;99.90;;;9.68;100.00;98553.53;5040725;28;20470;-86
2022/10/31 07:00:42;;;;;;;12.20;3.87;;;8.70;99.90;;;9.70;100.00;98560.22;5041834;28;21021;-87
2022/10/31 07:03:16;;;;;;;11.20;4.83;;;8.80;99.90;;;9.70;100.00;98557.59;5038779;28;20511;-87
2022/10/31 07:05:45;;;;;;;11.07;4.00;;;8.80;99.90;;;9.70;100.00;98562.81;5040715;28;20529;-87
2022/10/31 07:08:15;;;;;;;13.57;4.57;;;8.80;99.90;;;9.70;100.00;98560.22;5040355;28;20504;-87
2022/10/31 07:10:53;;;;;;;7.83;3.67;;;8.80;99.90;;;9.69;100.00;98563.78;5039808;28;20452;-87
2022/10/31 07:13:25;;;;;;;18.00;4.10;;;8.70;99.90;;;9.65;100.00;98565.09;5041090;28;20473;-87
2022/10/31 07:15:59;;;;;;;12.77;4.00;;;8.70;99.90;;;9.66;100.00;98564.13;5040770;28;21002;-86
2022/10/31 07:18:31;;;;;;;9.07;3.53;;;8.70;99.90;;;9.68;100.00;98571.81;5039832;28;20492;-88
2022/10/31 07:20:59;;;;;;;6.43;4.00;;;8.70;99.90;;;9.69;100.00;98579.47;5041831;28;20558;-87
2022/10/31 07:23:28;;;;;;;9.70;4.40;;;8.70;99.90;;;9.74;100.00;98573.75;5039918;28;20565;-87
2022/10/31 07:25:58;;;;;;;11.50;4.20;;;8.80;99.90;;;9.79;100.00;98574.84;5041065;28;20446;-87
2022/10/31 07:28:28;;;;;;;13.60;3.97;;;8.80;99.90;;;9.83;100.00;98570.09;5039480;28;20859;-87
2022/10/31 07:30:59;;;;;;;24.17;4.50;;;8.90;99.90;;;9.87;100.00;98577.44;5040577;28;20480;-85
2022/10/31 07:33:29;;;;;;;15.03;5.33;;;9.00;99.90;;;9.92;100.00;98579.56;5040759;28;20886;-85
2022/10/31 07:35:58;;;;;;;8.63;3.83;;;9.00;99.90;;;9.93;100.00;98570.72;5038637;28;20503;-85
2022/10/31 07:38:27;;;;;;;9.37;4.77;;;9.10;99.90;;;9.97;100.00;98578.06;5038947;28;20491;-85
2022/10/31 07:40:57;;;;;;;14.83;5.03;;;9.10;99.90;;;10.03;100.00;98576.59;5040962;28;20525;-86
2022/10/31 07:43:25;;;;;;;12.47;4.97;;;9.20;99.90;;;10.04;100.00;98579.00;5040423;28;20485;-86
2022/10/31 07:45:55;;;;;;;19.83;5.57;;;9.20;99.90;;;10.09;100.00;98571.47;5038056;28;20804;-85
2022/10/31 07:48:23;;;;;;;17.70;5.60;;;9.30;99.90;;;10.13;100.00;98573.75;5039561;28;20488;-84
2022/10/31 07:50:53;;;;;;;11.30;5.70;;;9.30;99.90;;;10.13;100.00;98574.56;5038221;28;20855;-86
2022/10/31 07:53:22;;;;;;;8.10;5.00;;;9.30;99.90;;;10.15;100.00;98574.41;5038429;28;20516;-86
2022/10/31 07:55:51;;;;;;;8.70;5.77;;;9.30;99.90;;;10.17;100.00;98570.63;5036772;28;20494;-85
2022/10/31 07:58:20;;;;;;;9.00;4.80;;;9.30;99.90;;;10.23;100.00;98574.38;5037919;28;20489;-86
2022/10/31 08:00:49;;;;;;;7.10;4.67;;;9.40;99.90;;;10.26;100.00;98576.66;5037788;28;20930;-85
2022/10/31 08:03:20;;;;;;;19.80;5.87;;;9.40;99.90;;;10.29;100.00;98571.88;5039763;28;20466;-85
2022/10/31 08:05:49;;;;;;;11.07;5.57;;;9.50;99.90;;;10.33;100.00;98567.94;5038229;28;20492;-85
2022/10/31 08:08:19;;;;;;;16.60;4.90;;;9.50;99.90;;;10.39;100.00;98572.47;5038380;28;20488;-86
2022/10/31 08:10:48;;;;;;;18.07;5.30;;;9.60;99.90;;;10.42;100.00;98566.91;5038678;28;20535;-85
2022/10/31 08:13:16;;;;;;;13.87;5.60;;;9.60;99.90;;;10.43;100.00;98563.31;5038887;28;20500;-86
2022/10/31 08:15:49;;;;;;;13.00;5.33;;;9.60;99.90;;;10.47;100.00;98569.84;5037767;28;20492;-86
2022/10/31 08:18:18;;;;;;;12.90;4.80;;;9.70;99.90;;;10.51;100.00;98565.88;5037453;28;20486;-86
2022/10/31 08:20:47;;;;;;;15.83;5.40;;;9.70;99.90;;;10.54;100.00;98567.34;5039809;28;20525;-86
2022/10/31 08:23:15;;;;;;;8.60;4.70;;;9.80;99.90;;;10.57;100.00;98570.41;5038493;28;20450;-85
2022/10/31 08:25:46;;;;;;;21.13;4.80;;;9.80;99.90;;;10.61;100.00;98570.88;5036333;28;20986;-86
2022/10/31 08:28:16;;;;;;;19.90;5.20;;;9.80;99.90;;;10.66;100.00;98562.50;5037898;28;20462;-85
2022/10/31 08:30:45;;;;;;;12.70;6.40;;;9.90;99.90;;;10.70;100.00;98563.78;5038949;28;20467;-85
2022/10/31 08:33:18;;;;;;;13.53;5.70;;;9.90;99.90;;;10.74;100.00;98549.38;5038898;28;20434;-86
2022/10/31 08:35:47;;;;;;;8.30;4.70;;;9.90;99.90;;;10.77;100.00;98549.00;5038916;28;20524;-86
2022/10/31 08:38:16;;;;;;;15.73;5.80;;;10.00;99.90;;;10.80;100.00;98548.66;5037510;28;20460;-86
2022/10/31 08:40:50;;;;;;;15.67;4.63;;;10.00;99.90;;;10.85;100.00;98552.38;5038371;28;20456;-86
2022/10/31 08:43:19;;;;;;;15.40;5.00;;;10.10;99.90;;;10.91;100.00;98550.84;5039032;28;20529;-85
2022/10/31 08:45:50;;;;;;;17.20;5.10;;;10.10;99.90;;;10.96;100.00;98548.53;5038463;28;20489;-85
2022/10/31 08:48:19;;;;;;;11.47;5.43;;;10.20;99.90;;;11.01;100.00;98547.00;5036095;28;20556;-86
2022/10/31 08:50:48;;;;;;;13.73;5.97;;;10.30;99.90;;;11.06;100.00;98544.69;5036362;28;20582;-85
2022/10/31 08:53:19;;;;;;;11.87;5.03;;;10.30;99.90;;;11.10;100.00;98548.56;5036454;28;20984;-85
2022/10/31 08:55:49;;;;;;;8.10;4.73;;;10.40;99.90;;;11.12;100.00;98540.53;5035344;28;20560;-85
2022/10/31 08:58:20;;;;;;;10.40;6.00;;;10.40;99.90;;;11.16;100.00;98547.03;5036220;28;20569;-85
2022/10/31 09:00:52;;;;;;;16.87;5.53;;;10.40;99.90;;;11.23;100.00;98549.75;5037226;28;20485;-86
2022/10/31 09:03:24;;;;;;;16.80;5.60;;;10.50;99.90;;;11.28;100.00;98544.81;5036179;28;20952;-85
2022/10/31 09:05:58;;;;;;;7.60;4.80;;;10.60;99.90;;;11.33;100.00;98535.41;5037260;28;20464;-86
2022/10/31 09:08:29;;;;;;;9.77;4.87;;;10.70;99.90;;;11.37;100.00;98534.06;5036454;28;20437;-85
2022/10/31 09:11:00;;;;;;;17.30;5.47;;;10.70;99.90;;;11.42;100.00;98531.69;5038327;28;20531;-85
2022/10/31 09:13:30;;;;;;;27.87;5.47;;;10.80;99.90;;;11.48;100.00;98532.81;5037702;28;20811;-85
2022/10/31 09:16:00;;;;;;;12.50;4.80;;;10.80;99.90;;;11.52;100.00;98523.59;5036369;28;21056;-86
2022/10/31 09:18:31;;;;;;;13.30;5.60;;;10.90;99.90;;;11.56;100.00;98523.03;5038346;28;20532;-86
2022/10/31 09:21:01;;;;;;;10.77;5.47;;;10.90;99.90;;;11.61;100.00;98512.84;5037776;28;20442;-85
2022/10/31 09:23:30;;;;;;;9.50;4.77;;;11.00;99.90;;;11.66;100.00;98509.69;5037853;28;20537;-86
2022/10/31 09:26:02;;;;;;;12.27;5.73;;;11.10;99.90;;;11.70;100.00;98510.13;5035930;28;20957;-86
2022/10/31 09:28:32;;;;;;;11.87;4.77;;;11.10;99.90;;;11.75;100.00;98513.03;5036585;28;20472;-85
2022/10/31 09:31:00;;;;;;;8.80;5.03;;;11.10;99.90;;;11.78;100.00;98515.28;5035772;28;20983;-86
2022/10/31 09:33:29;;;;;;;10.77;4.63;;;11.10;99.90;;;11.83;100.00;98515.56;5035186;28;20541;-86
2022/10/31 09:36:00;;;;;;;7.53;5.10;;;11.20;99.90;;;11.88;100.00;98510.56;5036915;28;20489;-86
2022/10/31 09:38:28;;;;;;;10.30;4.23;;;11.20;99.90;;;11.92;100.00;98511.84;5035802;28;20580;-86
2022/10/31 09:41:15;;;;;;;9.20;5.23;;;11.20;99.90;;;11.96;100.00;98497.38;5035968;28;20442;-88
2022/10/31 09:43:59;;;;;;;15.63;5.47;;;11.30;99.90;;;12.03;100.00;98501.69;5035795;28;20532;-85
2022/10/31 09:46:42;;;;;;;11.50;5.40;;;11.40;99.90;;;12.08;100.00;98494.06;5038307;28;20442;-86
2022/10/31 09:49:55;;;;;;;19.80;6.77;;;11.50;99.90;;;12.16;100.00;98501.00;5040078;28;20465;-85
2022/10/31 09:52:31;;;;;;;10.60;5.10;;;11.60;99.90;;;12.21;100.00;98496.03;5040090;28;20514;-86
2022/10/31 09:55:10;;;;;;;21.87;5.87;;;11.60;99.90;;;12.24;100.00;98498.28;5040633;28;20518;-85
2022/10/31 09:57:42;;;;;;;9.03;5.50;;;11.60;99.90;;;12.30;100.00;98489.66;5039359;28;20525;-85
2022/10/31 10:00:19;;;;;;;14.40;5.57;;;11.70;99.90;;;12.35;100.00;98489.94;5040425;28;20909;-86
2022/10/31 10:02:57;;;;;;;24.30;5.20;;;11.70;99.90;;;12.39;100.00;98491.16;5039263;28;20552;-86
2022/10/31 10:05:40;;;;;;;11.40;5.17;;;11.80;99.90;;;12.45;100.00;98487.81;5040989;28;20450;-85
2022/10/31 10:08:17;;;;;;;12.77;5.30;;;11.90;99.90;;;12.50;100.00;98482.78;5039091;28;20481;-85
2022/10/31 10:11:06;;;;;;;11.07;4.90;;;12.00;99.90;;;12.56;100.00;98487.28;5039953;28;20450;-86
2022/10/31 10:14:05;;;;;;;10.23;5.20;;;12.10;99.90;;;12.61;100.00;98487.53;5040233;28;20456;-86
2022/10/31 10:17:01;;;;;;;14.83;5.37;;;12.10;99.90;;;12.66;100.00;98486.16;5039722;28;20986;-86
2022/10/31 10:20:01;;;;;;;11.43;5.90;;;12.20;99.90;;;12.70;100.00;98488.22;5039679;28;20465;-86
2022/10/31 10:22:53;;;;;;;9.83;5.03;;;12.20;99.90;;;12.77;100.00;98499.59;5042363;28;20449;-86
2022/10/31 10:25:25;;;;;;;13.70;5.23;;;12.30;99.90;;;12.82;100.00;98496.38;5042214;28;20452;-85
2022/10/31 10:28:16;;;;;;;9.97;5.30;;;12.30;99.90;;;12.88;100.00;98503.47;5043144;28;20467;-85
2022/10/31 10:30:51;;;;;;;14.67;5.73;;;12.40;99.90;;;12.92;100.00;98494.22;5040094;28;20449;-85
2022/10/31 10:33:27;;;;;;;10.13;5.40;;;12.50;99.90;;;12.97;100.00;98494.47;5037556;28;20995;-85
2022/10/31 10:36:02;;;;;;;9.30;5.43;;;12.50;99.90;;;13.02;100.00;98492.09;5039302;28;20488;-86
2022/10/31 10:38:39;;;;;;;12.43;4.77;;;12.60;99.90;;;13.04;100.00;98484.84;5038231;28;20583;-85